Dar Mlodziezy — SQLZ — position and weather

sailwx.info

Track history (hours):
 
Tides and Currents Weather Stations Pressure Air Temp Water Temp Dewpoint Dewpoint Depression Visibility Wind Speed Wind Dir Waves Ship Positions

Dar Mlodziezy

Training ship for Gdynia Maritime University, Poland.

Ship's website: http://www.am.gdynia.pl/armator/darmlodziezy.php

Last reported at 2018-Apr-20 06:30 UTC. Time now 2018-Apr-20 06:45 UTC.
Position N 51°21' E 003°47'.

Length 95 m; beam 14 m.

Type: Sailing vessel. MMSI: 261148000.

Date/timePositionNaut miles runAvg speedWind from/ knotsBaromVisibWave heightAir tempDewpointWater temp
2018-Apr-20 06:30N 51°21' E 003°47'3 6.9
2018-Apr-20 06:01N 51°23' E 003°43'3 6.9
2018-Apr-20 05:31N 51°26' E 003°40'4 7.6
2018-Apr-20 05:00N 51°25' E 003°34'4 8.6
2018-Apr-20 04:30N 51°25' E 003°27'5 9.8
2018-Apr-20 04:01N 51°24' E 003°19'510.9
2018-Apr-20 03:31N 51°23' E 003°11'611.3
2018-Apr-20 03:00N 51°22' E 003°02'611.0
2018-Apr-20 02:30N 51°21' E 002°53'510.8
2018-Apr-20 02:00N 51°22' E 002°44'4 7.1
2018-Apr-20 01:30N 51°21' E 002°38'2 4.5
2018-Apr-20 01:01N 51°21' E 002°35'1 2.2
2018-Apr-20 00:30N 51°21' E 002°33'1 1.5
2018-Apr-20 00:00N 51°21' E 002°34'0 0.7
2018-Apr-19 23:29N 51°21' E 002°35'0 0.2
2018-Apr-19 23:00N 51°21' E 002°35'0 0.6
2018-Apr-19 22:29N 51°21' E 002°34'0 0.7
2018-Apr-19 21:51N 51°21' E 002°34'0 1.1
2018-Apr-19 21:30N 51°21' E 002°33'1 1.5
2018-Apr-19 21:01N 51°21' E 002°32'1 1.0
2018-Apr-19 20:30N 51°22' E 002°31'1 1.4
2018-Apr-19 19:55N 51°22' E 002°30'1 1.9
2018-Apr-19 19:30N 51°21' E 002°29'1 2.1
2018-Apr-19 18:59N 51°21' E 002°27'1 2.5
2018-Apr-19 18:30N 51°21' E 002°25'1 3.0
2018-Apr-19 18:00N 51°20' E 002°23'2 3.8
2018-Apr-19 17:30N 51°19' E 002°21'2 4.2
2018-Apr-19 17:00N 51°17' E 002°18'2 4.6
2018-Apr-19 16:29N 51°16' E 002°15'2 4.6
2018-Apr-19 16:00N 51°15' E 002°12'2 4.9
2018-Apr-19 15:31N 51°14' E 002°09'2 4.6
2018-Apr-19 15:01N 51°12' E 002°06'2 5.0
2018-Apr-19 14:31N 51°11' E 002°02'3 5.2
2018-Apr-19 14:01N 51°10' E 001°58'3 5.0
2018-Apr-19 13:31N 51°09' E 001°55'3 5.4
2018-Apr-19 13:01N 51°08' E 001°51'3 5.4
2018-Apr-19 12:31N 51°06' E 001°47'2 4.9
2018-Apr-19 12:01N 51°05' E 001°45'2 4.0
2018-Apr-19 11:31N 51°03' E 001°43'2 3.0
2018-Apr-19 11:01N 51°02' E 001°41'1 2.0
2018-Apr-19 10:31N 51°01' E 001°40'1 1.1
2018-Apr-19 10:00N 51°01' E 001°39'0 0.8
2018-Apr-19 09:30N 51°00' E 001°39'0 0.7
2018-Apr-19 09:00N 51°00' E 001°38'0 0.9
2018-Apr-19 08:30N 50°60' E 001°38'1 1.1
2018-Apr-19 08:00N 50°59' E 001°37'1 1.4
2018-Apr-19 07:30N 50°59' E 001°37'1 1.9
2018-Apr-19 07:01N 50°58' E 001°36'1 2.6
2018-Apr-19 06:30N 50°57' E 001°34'2 3.1
2018-Apr-19 06:00N 50°56' E 001°33'2 3.7
2018-Apr-19 05:31N 50°55' E 001°31'2 3.9
2018-Apr-19 05:00N 50°53' E 001°29'4 4.7
2018-Apr-19 04:12N 50°49' E 001°28'1 4.9
2018-Apr-19 03:57N 50°48' E 001°27'2 4.9
2018-Apr-19 03:28N 50°46' E 001°26'2 4.9
2018-Apr-19 02:59N 50°44' E 001°24'2 5.0
2018-Apr-19 02:30N 50°42' E 001°22'2 4.5
2018-Apr-19 01:58N 50°40' E 001°20'2 4.0
2018-Apr-19 01:30N 50°38' E 001°18'5 4.1
2018-Apr-19 00:22N 50°35' E 001°13'20 2.7
2018-Apr-18 16:48N 50°24' E 000°46'1 1.7
2018-Apr-18 16:27N 50°24' E 000°47'1 1.6
2018-Apr-18 15:55N 50°24' E 000°49'1 1.4
2018-Apr-18 15:30N 50°24' E 000°50'1 1.0
2018-Apr-18 14:06N 50°24' E 000°52'26 1.8
2018-Apr-17 23:47N 50°19' E 000°12'2 6.5
2018-Apr-17 23:31N 50°19' E 000°09'12 4.7
2018-Apr-17 21:02N 50°16' W 000°09'0 4.5
2018-Apr-17 20:57N 50°16' W 000°09'5 4.0
2018-Apr-17 19:46N 50°16' W 000°17'14 1.9
2018-Apr-17 12:22N 50°29' W 000°26'1 3.4
2018-Apr-17 12:00N 50°30' W 000°26'3 5.5
2018-Apr-17 11:30N 50°30' W 000°31'4 7.9
2018-Apr-17 11:00N 50°28' W 000°37'4 8.1
2018-Apr-17 10:29N 50°27' W 000°43'5 8.8
2018-Apr-17 09:58N 50°25' W 000°49'610.1
2018-Apr-17 09:23N 50°23' W 000°58'410.0
2018-Apr-17 09:01N 50°22' W 001°04'510.8
2018-Apr-17 08:30N 50°20' W 001°12'510.2
2018-Apr-17 07:59N 50°19' W 001°20'910.0
2018-Apr-17 07:04N 50°17' W 001°34'310.0
2018-Apr-17 06:47N 50°16' W 001°38'2 7.8
2018-Apr-17 06:28N 50°16' W 001°42'3 6.9
2018-Apr-17 05:59N 50°15' W 001°47'3 6.7
2018-Apr-17 05:30N 50°15' W 001°52'4 6.8
2018-Apr-17 04:59N 50°15' W 001°57'3 5.8
2018-Apr-17 04:30N 50°15' W 002°02'3 6.3
2018-Apr-17 04:01N 50°14' W 002°07'3 5.4
2018-Apr-17 03:30N 50°14' W 002°11'2 4.6
2018-Apr-17 03:00N 50°14' W 002°15'19 5.4
2018-Apr-16 23:23N 50°13' W 002°45'3 8.0
2018-Apr-16 22:59N 50°13' W 002°50'4 8.1
2018-Apr-16 22:30N 50°10' W 002°53'4 8.2
2018-Apr-16 22:01N 50°06' W 002°56'4 7.7
2018-Apr-16 21:30N 50°03' W 002°59'4 7.4
2018-Apr-16 21:01N 49°60' W 003°02'4 7.6
2018-Apr-16 20:30N 49°56' W 003°05'4 7.7
2018-Apr-16 20:01N 49°54' W 003°09'4 6.9
2018-Apr-16 19:26N 49°51' W 003°13'3 6.1
2018-Apr-16 19:00N 49°49' W 003°16'3 6.1
2018-Apr-16 18:30N 49°46' W 003°18'  
2018-Apr-12 19:08N 39°27' W 009°45'1 7.5
2018-Apr-12 19:00N 39°26' W 009°46'4 7.2
2018-Apr-12 18:28N 39°22' W 009°46'3 7.1
2018-Apr-12 18:01N 39°19' W 009°45'4 7.0
2018-Apr-12 17:30N 39°15' W 009°45'3 6.4
2018-Apr-12 17:00N 39°12' W 009°45'3 6.2
2018-Apr-12 16:30N 39°09' W 009°45'3 6.4
2018-Apr-12 16:01N 39°06' W 009°44'3 6.5
2018-Apr-12 15:31N 39°02' W 009°44'3 6.2
2018-Apr-12 15:01N 38°59' W 009°44'3 5.8
2018-Apr-12 14:30N 38°56' W 009°44'3 6.1
2018-Apr-12 14:01N 38°53' W 009°43'3 6.0
2018-Apr-12 13:31N 38°50' W 009°43'3 5.5
2018-Apr-12 13:00N 38°48' W 009°43'3 5.4
2018-Apr-12 12:30N 38°45' W 009°42'3 5.3
2018-Apr-12 12:01N 38°43' W 009°41'2 4.5
2018-Apr-12 11:31N 38°40' W 009°40'2 3.9
2018-Apr-12 11:00N 38°39' W 009°38'2 4.0
2018-Apr-12 10:31N 38°38' W 009°36'2 4.3
2018-Apr-12 10:01N 38°38' W 009°33'2 4.9
2018-Apr-12 09:30N 38°38' W 009°30'2 4.6
2018-Apr-12 09:00N 38°37' W 009°27'3 6.5
2018-Apr-12 08:31N 38°37' W 009°23'4 7.1
2018-Apr-12 08:01N 38°39' W 009°20'4 7.4
2018-Apr-12 07:30N 38°41' W 009°15'0 1.0
2018-Apr-12 07:00N 38°41' W 009°16'0 0.7
2018-Apr-12 06:30N 38°41' W 009°16'3 6.7
2018-Apr-12 06:00N 38°39' W 009°20'4 7.2
2018-Apr-12 05:31N 38°37' W 009°23'4 9.0
2018-Apr-12 05:01N 38°35' W 009°28'4 8.7
2018-Apr-12 04:31N 38°32' W 009°33'4 8.7
2018-Apr-12 04:00N 38°29' W 009°36'4 8.3
2018-Apr-12 03:29N 38°25' W 009°39'  
Track history (hours):
 
Tides and Currents Weather Stations Pressure Air Temp Water Temp Dewpoint Dewpoint Depression Visibility Wind Speed Wind Dir Waves Ship Positions

Dar Mlodziezy

Training ship for Gdynia Maritime University, Poland.

Ship's website: http://www.am.gdynia.pl/armator/darmlodziezy.php

Last reported at 2018-Apr-20 06:30 UTC. Time now 2018-Apr-20 06:45 UTC.
Position N 51°21' E 003°47'.

Length 95 m; beam 14 m.

Type: Sailing vessel. MMSI: 261148000.

Date/timePositionNaut miles runAvg speedWind from/ knotsBaromVisibWave heightAir tempDewpointWater temp
2018-Apr-20 06:30N 51°21' E 003°47'3 6.9
2018-Apr-20 06:01N 51°23' E 003°43'3 6.9
2018-Apr-20 05:31N 51°26' E 003°40'4 7.6
2018-Apr-20 05:00N 51°25' E 003°34'4 8.6
2018-Apr-20 04:30N 51°25' E 003°27'5 9.8
2018-Apr-20 04:01N 51°24' E 003°19'510.9
2018-Apr-20 03:31N 51°23' E 003°11'611.3
2018-Apr-20 03:00N 51°22' E 003°02'611.0
2018-Apr-20 02:30N 51°21' E 002°53'510.8
2018-Apr-20 02:00N 51°22' E 002°44'4 7.1
2018-Apr-20 01:30N 51°21' E 002°38'2 4.5
2018-Apr-20 01:01N 51°21' E 002°35'1 2.2
2018-Apr-20 00:30N 51°21' E 002°33'1 1.5
2018-Apr-20 00:00N 51°21' E 002°34'0 0.7
2018-Apr-19 23:29N 51°21' E 002°35'0 0.2
2018-Apr-19 23:00N 51°21' E 002°35'0 0.6
2018-Apr-19 22:29N 51°21' E 002°34'0 0.7
2018-Apr-19 21:51N 51°21' E 002°34'0 1.1
2018-Apr-19 21:30N 51°21' E 002°33'1 1.5
2018-Apr-19 21:01N 51°21' E 002°32'1 1.0
2018-Apr-19 20:30N 51°22' E 002°31'1 1.4
2018-Apr-19 19:55N 51°22' E 002°30'1 1.9
2018-Apr-19 19:30N 51°21' E 002°29'1 2.1
2018-Apr-19 18:59N 51°21' E 002°27'1 2.5
2018-Apr-19 18:30N 51°21' E 002°25'1 3.0
2018-Apr-19 18:00N 51°20' E 002°23'2 3.8
2018-Apr-19 17:30N 51°19' E 002°21'2 4.2
2018-Apr-19 17:00N 51°17' E 002°18'2 4.6
2018-Apr-19 16:29N 51°16' E 002°15'2 4.6
2018-Apr-19 16:00N 51°15' E 002°12'2 4.9
2018-Apr-19 15:31N 51°14' E 002°09'2 4.6
2018-Apr-19 15:01N 51°12' E 002°06'2 5.0
2018-Apr-19 14:31N 51°11' E 002°02'3 5.2
2018-Apr-19 14:01N 51°10' E 001°58'3 5.0
2018-Apr-19 13:31N 51°09' E 001°55'3 5.4
2018-Apr-19 13:01N 51°08' E 001°51'3 5.4
2018-Apr-19 12:31N 51°06' E 001°47'2 4.9
2018-Apr-19 12:01N 51°05' E 001°45'2 4.0
2018-Apr-19 11:31N 51°03' E 001°43'2 3.0
2018-Apr-19 11:01N 51°02' E 001°41'1 2.0
2018-Apr-19 10:31N 51°01' E 001°40'1 1.1
2018-Apr-19 10:00N 51°01' E 001°39'0 0.8
2018-Apr-19 09:30N 51°00' E 001°39'0 0.7
2018-Apr-19 09:00N 51°00' E 001°38'0 0.9
2018-Apr-19 08:30N 50°60' E 001°38'1 1.1
2018-Apr-19 08:00N 50°59' E 001°37'1 1.4
2018-Apr-19 07:30N 50°59' E 001°37'1 1.9
2018-Apr-19 07:01N 50°58' E 001°36'1 2.6
2018-Apr-19 06:30N 50°57' E 001°34'2 3.1
2018-Apr-19 06:00N 50°56' E 001°33'2 3.7
2018-Apr-19 05:31N 50°55' E 001°31'2 3.9
2018-Apr-19 05:00N 50°53' E 001°29'4 4.7
2018-Apr-19 04:12N 50°49' E 001°28'1 4.9
2018-Apr-19 03:57N 50°48' E 001°27'2 4.9
2018-Apr-19 03:28N 50°46' E 001°26'2 4.9
2018-Apr-19 02:59N 50°44' E 001°24'2 5.0
2018-Apr-19 02:30N 50°42' E 001°22'2 4.5
2018-Apr-19 01:58N 50°40' E 001°20'2 4.0
2018-Apr-19 01:30N 50°38' E 001°18'5 4.1
2018-Apr-19 00:22N 50°35' E 001°13'20 2.7
2018-Apr-18 16:48N 50°24' E 000°46'1 1.7
2018-Apr-18 16:27N 50°24' E 000°47'1 1.6
2018-Apr-18 15:55N 50°24' E 000°49'1 1.4
2018-Apr-18 15:30N 50°24' E 000°50'1 1.0
2018-Apr-18 14:06N 50°24' E 000°52'26 1.8
2018-Apr-17 23:47N 50°19' E 000°12'2 6.5
2018-Apr-17 23:31N 50°19' E 000°09'12 4.7
2018-Apr-17 21:02N 50°16' W 000°09'0 4.5
2018-Apr-17 20:57N 50°16' W 000°09'5 4.0
2018-Apr-17 19:46N 50°16' W 000°17'14 1.9
2018-Apr-17 12:22N 50°29' W 000°26'1 3.4
2018-Apr-17 12:00N 50°30' W 000°26'3 5.5
2018-Apr-17 11:30N 50°30' W 000°31'4 7.9
2018-Apr-17 11:00N 50°28' W 000°37'4 8.1
2018-Apr-17 10:29N 50°27' W 000°43'5 8.8
2018-Apr-17 09:58N 50°25' W 000°49'610.1
2018-Apr-17 09:23N 50°23' W 000°58'410.0
2018-Apr-17 09:01N 50°22' W 001°04'510.8
2018-Apr-17 08:30N 50°20' W 001°12'510.2
2018-Apr-17 07:59N 50°19' W 001°20'910.0
2018-Apr-17 07:04N 50°17' W 001°34'310.0
2018-Apr-17 06:47N 50°16' W 001°38'2 7.8
2018-Apr-17 06:28N 50°16' W 001°42'3 6.9
2018-Apr-17 05:59N 50°15' W 001°47'3 6.7
2018-Apr-17 05:30N 50°15' W 001°52'4 6.8
2018-Apr-17 04:59N 50°15' W 001°57'3 5.8
2018-Apr-17 04:30N 50°15' W 002°02'3 6.3
2018-Apr-17 04:01N 50°14' W 002°07'3 5.4
2018-Apr-17 03:30N 50°14' W 002°11'2 4.6
2018-Apr-17 03:00N 50°14' W 002°15'19 5.4
2018-Apr-16 23:23N 50°13' W 002°45'3 8.0
2018-Apr-16 22:59N 50°13' W 002°50'4 8.1
2018-Apr-16 22:30N 50°10' W 002°53'4 8.2
2018-Apr-16 22:01N 50°06' W 002°56'4 7.7
2018-Apr-16 21:30N 50°03' W 002°59'4 7.4
2018-Apr-16 21:01N 49°60' W 003°02'4 7.6
2018-Apr-16 20:30N 49°56' W 003°05'4 7.7
2018-Apr-16 20:01N 49°54' W 003°09'4 6.9
2018-Apr-16 19:26N 49°51' W 003°13'3 6.1
2018-Apr-16 19:00N 49°49' W 003°16'3 6.1
2018-Apr-16 18:30N 49°46' W 003°18'  
2018-Apr-12 19:08N 39°27' W 009°45'1 7.5
2018-Apr-12 19:00N 39°26' W 009°46'4 7.2
2018-Apr-12 18:28N 39°22' W 009°46'3 7.1
2018-Apr-12 18:01N 39°19' W 009°45'4 7.0
2018-Apr-12 17:30N 39°15' W 009°45'3 6.4
2018-Apr-12 17:00N 39°12' W 009°45'3 6.2
2018-Apr-12 16:30N 39°09' W 009°45'3 6.4
2018-Apr-12 16:01N 39°06' W 009°44'3 6.5
2018-Apr-12 15:31N 39°02' W 009°44'3 6.2
2018-Apr-12 15:01N 38°59' W 009°44'3 5.8
2018-Apr-12 14:30N 38°56' W 009°44'3 6.1
2018-Apr-12 14:01N 38°53' W 009°43'3 6.0
2018-Apr-12 13:31N 38°50' W 009°43'3 5.5
2018-Apr-12 13:00N 38°48' W 009°43'3 5.4
2018-Apr-12 12:30N 38°45' W 009°42'3 5.3
2018-Apr-12 12:01N 38°43' W 009°41'2 4.5
2018-Apr-12 11:31N 38°40' W 009°40'2 3.9
2018-Apr-12 11:00N 38°39' W 009°38'2 4.0
2018-Apr-12 10:31N 38°38' W 009°36'2 4.3
2018-Apr-12 10:01N 38°38' W 009°33'2 4.9
2018-Apr-12 09:30N 38°38' W 009°30'2 4.6
2018-Apr-12 09:00N 38°37' W 009°27'3 6.5
2018-Apr-12 08:31N 38°37' W 009°23'4 7.1
2018-Apr-12 08:01N 38°39' W 009°20'4 7.4
2018-Apr-12 07:30N 38°41' W 009°15'0 1.0
2018-Apr-12 07:00N 38°41' W 009°16'0 0.7
2018-Apr-12 06:30N 38°41' W 009°16'3 6.7
2018-Apr-12 06:00N 38°39' W 009°20'4 7.2
2018-Apr-12 05:31N 38°37' W 009°23'4 9.0
2018-Apr-12 05:01N 38°35' W 009°28'4 8.7
2018-Apr-12 04:31N 38°32' W 009°33'4 8.7
2018-Apr-12 04:00N 38°29' W 009°36'4 8.3
2018-Apr-12 03:29N 38°25' W 009°39'  

Dump ship's entire track history